Time;durP1;ratioP1;P1;durP2;ratioP2;P2;SDS_P1;SDS_P2;PMS_P1;PMS_P2;Temp;Humidity;BMP_temperature;BMP_pressure;BME280_temperature;BME280_humidity;BME280_pressure;Samples;Min_cycle;Max_cycle;Signal;HPM_P1;HPM_P2
2020/12/27 00:01:12;;;;;;;7.75;6.17;;;;;;;0.86;77.75;100506.81;1849654;76;21372;-70
2020/12/27 00:03:42;;;;;;;6.80;5.72;;;;;;;0.85;77.67;100514.93;1849573;77;21594;-70
2020/12/27 00:06:10;;;;;;;6.17;5.08;;;;;;;0.84;77.64;100517.50;1849780;77;21550;-70
2020/12/27 00:08:38;;;;;;;5.60;5.10;;;;;;;0.83;77.68;100517.09;1849582;77;23441;-70
2020/12/27 00:11:07;;;;;;;6.03;5.17;;;;;;;0.82;77.76;100520.52;1849519;77;20985;-70
2020/12/27 00:13:35;;;;;;;5.92;5.40;;;;;;;0.82;77.78;100520.52;1849614;77;21352;-70
2020/12/27 00:16:03;;;;;;;5.58;5.08;;;;;;;0.79;77.86;100526.55;1849572;77;20905;-71
2020/12/27 00:18:31;;;;;;;5.55;5.05;;;;;;;0.78;77.95;100531.25;1849653;77;21440;-71
2020/12/27 00:21:00;;;;;;;5.33;4.83;;;;;;;0.78;77.98;100534.25;1849554;77;22317;-71
2020/12/27 00:23:28;;;;;;;6.65;5.53;;;;;;;0.78;78.00;100534.25;1849548;77;21593;-70
2020/12/27 00:25:56;;;;;;;6.05;5.45;;;;;;;0.74;78.00;100533.85;1849501;76;21644;-70
2020/12/27 00:28:26;;;;;;;5.95;5.35;;;;;;;0.72;78.06;100537.70;1849588;77;21495;-69
2020/12/27 00:30:55;;;;;;;8.33;5.70;;;;;;;0.73;78.21;100534.72;1794451;77;21424;-70
2020/12/27 00:33:23;;;;;;;5.70;5.10;;;;;;;0.74;78.23;100538.98;1849552;77;22137;-70
2020/12/27 00:35:52;;;;;;;7.22;5.58;;;;;;;0.75;78.13;100541.53;1849557;77;21500;-70
2020/12/27 00:38:20;;;;;;;6.35;5.75;;;;;;;0.76;78.10;100538.53;1849516;77;21531;-69
2020/12/27 00:40:49;;;;;;;8.65;6.03;;;;;;;0.76;78.07;100542.37;1849560;76;21562;-70
2020/12/27 00:43:17;;;;;;;6.70;6.00;;;;;;;0.75;78.05;100545.37;1849556;77;21542;-70
2020/12/27 00:45:46;;;;;;;6.40;5.80;;;;;;;0.77;78.08;100549.20;1849577;77;22161;-70
2020/12/27 00:48:14;;;;;;;9.03;7.40;;;;;;;0.76;78.03;100553.91;1849497;77;20996;-70
2020/12/27 00:50:42;;;;;;;11.68;7.30;;;;;;;0.75;78.10;100547.09;1849562;77;21570;-71
2020/12/27 00:53:11;;;;;;;8.28;6.85;;;;;;;0.76;78.09;100558.61;1849526;77;21463;-70
2020/12/27 00:55:39;;;;;;;7.90;6.17;;;;;;;0.75;78.14;100562.47;1849555;77;21538;-70
2020/12/27 00:58:08;;;;;;;5.78;5.17;;;;;;;0.75;78.22;100568.44;1849561;77;22334;-70
2020/12/27 01:00:36;;;;;;;5.97;5.45;;;;;;;0.76;78.30;100563.73;1849480;77;21590;-69
2020/12/27 01:03:05;;;;;;;7.50;5.53;;;;;;;0.76;78.28;100567.58;1849587;77;21452;-70
2020/12/27 01:05:38;;;;;;;7.62;5.22;;;;;;;0.77;78.34;100564.16;1844688;77;20974;-70
2020/12/27 01:08:06;;;;;;;5.55;5.08;;;;;;;0.77;78.35;100561.59;1849606;77;21629;-70
2020/12/27 01:10:34;;;;;;;5.60;5.03;;;;;;;0.78;78.39;100555.61;1849596;77;22311;-71
2020/12/27 01:13:03;;;;;;;6.62;5.90;;;;;;;0.79;78.38;100568.84;1849505;77;21391;-71
2020/12/27 01:15:33;;;;;;;5.92;5.42;;;;;;;0.81;78.36;100567.52;1849656;77;21506;-71
2020/12/27 01:18:06;;;;;;;5.53;5.03;;;;;;;0.81;78.29;100570.08;1849015;77;21574;-71
2020/12/27 01:20:35;;;;;;;5.78;5.22;;;;;;;0.81;78.37;100570.08;1849570;77;20926;-70
2020/12/27 01:23:03;;;;;;;6.05;5.47;;;;;;;0.83;78.41;100570.48;1849578;77;22146;-71
2020/12/27 01:25:34;;;;;;;5.15;4.67;;;;;;;0.86;78.39;100569.62;1849065;77;21538;-70
2020/12/27 01:28:02;;;;;;;7.22;5.35;;;;;;;0.86;78.44;100566.63;1858305;77;21360;-71
2020/12/27 01:30:30;;;;;;;5.50;5.00;;;;;;;0.88;78.39;100568.74;1858188;77;21478;-70
2020/12/27 01:33:00;;;;;;;6.25;5.45;;;;;;;0.88;78.43;100571.30;1858006;77;21032;-71
2020/12/27 01:35:31;;;;;;;5.42;4.97;;;;;;;0.88;78.58;100568.74;1858202;77;22127;-71
2020/12/27 01:38:00;;;;;;;6.25;4.67;;;;;;;0.89;78.69;100573.44;1858114;77;21546;-71
2020/12/27 01:40:28;;;;;;;5.90;5.30;;;;;;;0.89;78.77;100565.31;1858201;77;21541;-70
2020/12/27 01:43:00;;;;;;;5.47;4.50;;;;;;;0.90;78.91;100568.30;1858138;77;21573;-69
2020/12/27 01:45:28;;;;;;;5.12;4.62;;;;;;;0.92;79.12;100559.31;1858209;77;21497;-70
2020/12/27 01:48:01;;;;;;;5.37;4.87;;;;;;;0.92;79.24;100567.86;1857404;76;21497;-71
2020/12/27 01:50:30;;;;;;;5.28;4.78;;;;;;;0.92;79.37;100560.59;1858078;77;21419;-69
2020/12/27 01:53:00;;;;;;;5.70;4.92;;;;;;;0.90;79.53;100568.30;1858234;77;21562;-72
2020/12/27 01:55:32;;;;;;;5.12;4.72;;;;;;;0.90;79.75;100568.73;1858050;77;20906;-69
2020/12/27 01:58:19;;;;;;;5.60;4.92;;;;;;;0.86;79.88;100574.31;1858221;77;20929;-70
2020/12/27 02:00:54;;;;;;;5.15;4.60;;;;;;;0.86;80.09;100578.16;1856961;77;21376;-70
2020/12/27 02:03:35;;;;;;;6.35;5.42;;;;;;;0.82;80.26;100580.33;1791462;77;21475;-70
2020/12/27 02:06:05;;;;;;;5.72;5.22;;;;;;;0.81;80.44;100590.59;1857395;77;21348;-69
2020/12/27 02:08:36;;;;;;;6.45;4.90;;;;;;;0.82;80.64;100597.42;1858315;77;21490;-70
2020/12/27 02:11:05;;;;;;;6.05;4.78;;;;;;;0.82;80.68;100594.85;1856573;77;20928;-69
2020/12/27 02:13:34;;;;;;;5.62;5.12;;;;;;;0.83;80.81;100599.97;1858429;77;22080;-69
2020/12/27 02:16:03;;;;;;;5.75;5.20;;;;;;;0.83;80.82;100602.53;1858313;77;21476;-70
2020/12/27 02:18:34;;;;;;;6.03;5.12;;;;;;;0.84;80.83;100606.80;1858397;77;21328;-69
2020/12/27 02:21:04;;;;;;;6.95;5.55;;;;;;;0.84;80.81;100601.67;1858384;77;22298;-70
2020/12/27 02:23:33;;;;;;;5.40;4.90;;;;;;;0.85;80.80;100603.80;1858339;77;21483;-70
2020/12/27 02:26:07;;;;;;;5.72;5.12;;;;;;;0.86;80.73;100610.63;1857032;77;21360;-69
2020/12/27 02:28:38;;;;;;;5.80;5.30;;;;;;;0.85;80.58;100608.93;1848790;77;21466;-70
2020/12/27 02:31:08;;;;;;;5.90;5.30;;;;;;;0.85;80.64;100607.65;1849507;77;21573;-70
2020/12/27 02:33:38;;;;;;;7.70;5.22;;;;;;;0.87;80.60;100612.34;1843794;77;21411;-70
2020/12/27 02:36:13;;;;;;;6.03;5.20;;;;;;;0.89;80.58;100613.17;1849722;77;21559;-70
2020/12/27 02:38:43;;;;;;;6.65;5.67;;;;;;;0.88;80.72;100620.02;1849791;77;22147;-69
2020/12/27 02:41:22;;;;;;;5.95;5.35;;;;;;;0.89;80.89;100618.30;1849718;76;21472;-62
2020/12/27 02:43:58;;;;;;;6.22;5.33;;;;;;;0.90;81.05;100625.98;1848611;77;21586;-61
2020/12/27 02:46:27;;;;;;;5.62;5.15;;;;;;;0.91;81.09;100626.84;1849677;77;21443;-60
2020/12/27 02:49:14;;;;;;;6.37;5.28;;;;;;;0.91;81.08;100626.41;1849728;77;21479;-63
2020/12/27 02:51:44;;;;;;;5.65;5.15;;;;;;;0.90;81.07;100633.67;1849736;77;20937;-61
2020/12/27 02:54:14;;;;;;;5.35;4.85;;;;;;;0.89;81.12;100637.10;1849683;77;21488;-61
2020/12/27 02:56:43;;;;;;;8.00;5.47;;;;;;;0.89;81.08;100639.66;1849751;77;21313;-70
2020/12/27 02:59:11;;;;;;;5.95;5.35;;;;;;;0.89;81.10;100642.23;1849719;77;21479;-62
2020/12/27 03:01:42;;;;;;;5.65;5.12;;;;;;;0.89;81.04;100642.66;1849712;77;21554;-71
2020/12/27 03:04:28;;;;;;;5.90;5.40;;;;;;;0.89;81.10;100644.80;1849662;77;22335;-71
2020/12/27 03:06:58;;;;;;;6.30;5.70;;;;;;;0.89;81.12;100644.80;1848707;77;20992;-70
2020/12/27 03:09:29;;;;;;;5.78;5.30;;;;;;;0.88;81.06;100648.22;1848097;77;21581;-70
2020/12/27 03:12:05;;;;;;;6.17;5.50;;;;;;;0.89;81.13;100650.35;1849018;77;20910;-68
2020/12/27 03:14:34;;;;;;;6.10;5.03;;;;;;;0.87;81.06;100650.36;1849645;77;21456;-70
2020/12/27 03:17:13;;;;;;;5.85;5.35;;;;;;;0.86;81.18;100649.09;1753497;81;22287;-70
2020/12/27 03:19:43;;;;;;;5.90;5.40;;;;;;;0.88;81.19;100654.63;1787815;80;21040;-70
2020/12/27 03:22:28;;;;;;;6.40;5.80;;;;;;;0.89;81.11;100658.05;1849247;77;21586;-70
2020/12/27 03:24:59;;;;;;;7.05;6.35;;;;;;;0.87;81.09;100663.61;1848921;77;21595;-70
2020/12/27 03:27:28;;;;;;;8.15;6.20;;;;;;;0.87;81.10;100667.45;1854207;77;21527;-70
2020/12/27 03:29:56;;;;;;;6.30;5.58;;;;;;;0.86;81.08;100671.73;1858300;77;22404;-71
2020/12/27 03:32:26;;;;;;;6.22;5.62;;;;;;;0.86;81.11;100670.87;1857097;77;21465;-69
2020/12/27 03:34:55;;;;;;;6.85;5.42;;;;;;;0.87;81.09;100673.86;1858270;77;21349;-70
2020/12/27 03:37:24;;;;;;;7.83;5.85;;;;;;;0.86;81.11;100676.86;1858241;77;21341;-70
2020/12/27 03:39:57;;;;;;;6.30;5.70;;;;;;;0.86;81.07;100685.83;1832744;77;21574;-62
2020/12/27 03:42:27;;;;;;;6.60;5.55;;;;;;;0.86;81.09;100685.83;1853505;77;22326;-63
2020/12/27 03:44:57;;;;;;;5.60;5.10;;;;;;;0.86;80.96;100689.67;1856917;77;21574;-69
2020/12/27 03:47:33;;;;;;;5.53;5.08;;;;;;;0.85;80.99;100694.38;1810079;77;21483;-70
2020/12/27 03:50:06;;;;;;;7.08;6.45;;;;;;;0.85;81.04;100694.81;1799708;77;21570;-70
2020/12/27 03:52:36;;;;;;;6.45;5.85;;;;;;;0.84;81.06;100700.38;1856896;77;21601;-70
2020/12/27 03:55:10;;;;;;;6.05;5.45;;;;;;;0.85;81.11;100700.80;1832813;77;22338;-67
2020/12/27 03:57:46;;;;;;;6.15;5.55;;;;;;;0.84;81.08;100701.66;1840885;77;21483;-70
2020/12/27 04:00:31;;;;;;;6.30;5.35;;;;;;;0.83;81.10;100712.77;1758810;81;21498;-72
2020/12/27 04:03:08;;;;;;;6.33;5.72;;;;;;;0.86;81.18;100712.75;1795610;77;27886;-61
2020/12/27 04:05:38;;;;;;;6.40;5.80;;;;;;;0.85;81.08;100716.17;1782145;79;21454;-71
2020/12/27 04:08:06;;;;;;;7.92;6.28;;;;;;;0.88;80.97;100721.72;1794076;80;22154;-70
2020/12/27 04:10:35;;;;;;;6.35;5.72;;;;;;;0.87;80.96;100721.30;1793985;80;21495;-71
2020/12/27 04:13:04;;;;;;;6.72;5.97;;;;;;;0.85;81.01;100724.30;1794127;80;21569;-71
2020/12/27 04:15:33;;;;;;;6.53;5.92;;;;;;;0.84;81.11;100724.73;1793978;78;21569;-71
2020/12/27 04:18:03;;;;;;;6.70;6.10;;;;;;;0.83;81.15;100727.30;1793298;80;21411;-64
2020/12/27 04:20:33;;;;;;;7.03;6.08;;;;;;;0.81;81.19;100726.45;1790013;78;22323;-69
2020/12/27 04:23:02;;;;;;;9.30;6.67;;;;;;;0.80;81.24;100733.29;1765608;80;21435;-63
2020/12/27 04:25:30;;;;;;;9.95;8.05;;;;;;;0.80;81.29;100729.91;1794013;80;21042;-62
2020/12/27 04:27:59;;;;;;;10.35;8.55;;;;;;;0.79;81.33;100736.74;1793955;80;21502;-60
2020/12/27 04:30:27;;;;;;;8.85;6.58;;;;;;;0.79;81.37;100733.33;1794045;80;22226;-60
2020/12/27 04:32:58;;;;;;;6.45;5.85;;;;;;;0.80;81.40;100740.16;1792142;78;22665;-62
2020/12/27 04:35:28;;;;;;;8.25;6.83;;;;;;;0.78;81.40;100736.32;1793164;80;21502;-62
2020/12/27 04:37:56;;;;;;;6.65;6.00;;;;;;;0.78;81.50;100740.16;1794013;80;21466;-63
2020/12/27 04:40:27;;;;;;;6.83;6.15;;;;;;;0.79;81.54;100742.30;1792953;80;21474;-61
2020/12/27 04:42:55;;;;;;;7.33;6.17;;;;;;;0.78;81.56;100741.45;1793977;78;21497;-68
2020/12/27 04:45:25;;;;;;;6.80;5.67;;;;;;;0.78;81.67;100752.13;1765008;80;22645;-67
2020/12/27 04:47:56;;;;;;;6.92;5.80;;;;;;;0.79;81.67;100756.41;1792191;78;21498;-69
2020/12/27 04:50:29;;;;;;;7.35;5.90;;;;;;;0.78;81.76;100759.39;1763181;80;21665;-70
2020/12/27 04:52:57;;;;;;;6.65;5.90;;;;;;;0.79;82.33;100760.24;1793988;80;21492;-70
2020/12/27 04:55:27;;;;;;;7.47;6.50;;;;;;;0.82;82.53;100771.30;1793948;78;21493;-70
2020/12/27 04:58:18;;;;;;;7.17;5.87;;;;;;;0.86;82.45;100775.56;1793714;80;21506;-71
2020/12/27 05:00:51;;;;;;;7.20;6.50;;;;;;;0.91;82.43;100784.52;1788108;78;20948;-69
2020/12/27 05:03:37;;;;;;;8.00;6.70;;;;;;;0.91;82.33;100785.38;1789158;80;21578;-68
2020/12/27 05:06:16;;;;;;;10.13;7.30;;;;;;;0.94;82.41;100792.20;1793899;80;21514;-70
2020/12/27 05:08:47;;;;;;;7.47;6.78;;;;;;;0.97;82.29;100791.75;1794026;80;21554;-62
2020/12/27 05:11:18;;;;;;;7.47;6.75;;;;;;;0.99;82.21;100787.47;1794014;80;21205;-67
2020/12/27 05:13:49;;;;;;;8.03;6.47;;;;;;;1.00;81.94;100787.89;1793030;80;21482;-62
2020/12/27 05:16:19;;;;;;;8.63;7.72;;;;;;;1.02;82.24;100796.02;1792267;80;21494;-62
2020/12/27 05:18:52;;;;;;;10.68;8.33;;;;;;;1.04;82.48;100800.27;1765089;80;21597;-61
2020/12/27 05:21:24;;;;;;;13.45;8.95;;;;;;;1.07;82.19;100802.83;1793503;80;21490;-67
2020/12/27 05:23:52;;;;;;;12.70;9.05;;;;;;;1.10;82.02;100807.94;1793428;80;22233;-63
2020/12/27 05:26:30;;;;;;;11.83;7.53;;;;;;;1.13;82.24;100809.21;1792898;80;20975;-62
2020/12/27 05:29:01;;;;;;;7.90;7.10;;;;;;;1.17;82.31;100822.88;1734228;78;21501;-63
2020/12/27 05:31:35;;;;;;;7.22;6.42;;;;;;;1.21;82.12;100823.25;1788926;80;21604;-62
2020/12/27 05:34:24;;;;;;;7.17;6.30;;;;;;;1.23;81.77;100824.95;1793402;80;21576;-61
2020/12/27 05:37:11;;;;;;;7.03;6.33;;;;;;;1.23;81.54;100824.95;1793362;80;22330;-64
2020/12/27 05:40:06;;;;;;;6.72;5.83;;;;;;;1.29;81.53;100831.33;1849183;77;22240;-76
2020/12/27 05:42:39;;;;;;;9.65;6.08;;;;;;;1.26;81.77;100835.62;1813258;79;20926;-72
2020/12/27 05:45:20;;;;;;;8.35;6.78;;;;;;;1.28;82.03;100841.59;1816032;79;21185;-77
2020/12/27 05:47:49;;;;;;;7.08;6.37;;;;;;;1.32;82.12;100841.58;1848175;77;20942;-77
2020/12/27 05:50:19;;;;;;;7.50;6.75;;;;;;;1.37;81.99;100844.13;1833502;78;20925;-77
2020/12/27 05:52:49;;;;;;;11.30;8.10;;;;;;;1.42;81.88;100850.08;1848317;77;21392;-75
2020/12/27 05:55:20;;;;;;;10.23;7.60;;;;;;;1.46;81.81;100853.48;1832711;78;20965;-77
2020/12/27 05:57:53;;;;;;;10.00;8.33;;;;;;;1.50;81.69;100859.03;1833183;78;21194;-76
2020/12/27 06:00:24;;;;;;;11.33;7.10;;;;;;;1.55;81.44;100868.41;1833110;78;21488;-75
2020/12/27 06:03:01;;;;;;;10.28;9.18;;;;;;;1.59;81.29;100876.52;1832361;78;20984;-76
2020/12/27 06:06:11;;;;;;;13.68;10.28;;;;;;;1.64;80.98;100885.44;1832998;78;20937;-77
2020/12/27 06:08:55;;;;;;;16.05;10.58;;;;;;;1.68;80.84;100896.11;1833195;78;20937;-76
2020/12/27 06:11:36;;;;;;;14.90;10.85;;;;;;;1.72;80.69;100901.66;1817253;78;21362;-75
2020/12/27 06:14:26;;;;;;;20.60;14.35;;;;;;;1.75;80.50;100905.92;1814696;79;21511;-75
2020/12/27 06:17:15;;;;;;;23.75;15.43;;;;;;;1.77;80.43;100902.91;1768749;79;21067;-73
2020/12/27 06:20:07;;;;;;;29.70;19.67;;;;;;;1.79;80.26;100906.33;1816072;79;20886;-75
2020/12/27 06:22:33;;;;;;;26.55;16.90;;;;;;;1.79;79.98;100916.59;1790611;79;21558;-76
2020/12/27 06:25:07;;;;;;;22.10;14.60;;;;;;;1.79;79.78;100917.88;1811931;79;22151;-77
2020/12/27 06:27:37;;;;;;;20.82;16.05;;;;;;;1.77;79.61;100919.17;1817160;79;20957;-76
2020/12/27 06:30:10;;;;;;;18.55;14.38;;;;;;;1.76;79.55;100926.45;1816097;79;20997;-76
2020/12/27 06:32:56;;;;;;;17.05;14.13;;;;;;;1.74;79.50;100923.04;1815289;79;20922;-72
2020/12/27 06:35:30;;;;;;;15.48;11.90;;;;;;;1.70;79.53;100930.33;1816114;79;21001;-74
2020/12/27 06:37:58;;;;;;;9.98;8.98;;;;;;;1.68;79.62;100935.48;1817153;79;21355;-75
2020/12/27 06:40:32;;;;;;;8.23;7.42;;;;;;;1.67;79.60;100940.19;1820903;78;21040;-76
2020/12/27 06:43:22;;;;;;;11.33;6.78;;;;;;;1.66;79.62;100936.34;1824038;78;20930;-76
2020/12/27 06:45:53;;;;;;;7.85;6.80;;;;;;;1.63;79.64;100937.64;1820119;78;20945;-77
2020/12/27 06:48:35;;;;;;;7.83;6.33;;;;;;;1.62;79.74;100956.05;1819147;78;20965;-78
2020/12/27 06:51:08;;;;;;;8.65;6.70;;;;;;;1.60;79.77;100951.80;1821272;78;22079;-78
2020/12/27 06:53:43;;;;;;;8.43;7.58;;;;;;;1.59;79.86;100950.09;1844850;77;20934;-78
2020/12/27 06:56:20;;;;;;;9.35;8.33;;;;;;;1.58;79.91;100956.09;1832218;78;20945;-77
2020/12/27 06:59:02;;;;;;;13.25;10.25;;;;;;;1.58;79.99;100959.52;1768902;78;21056;-77
2020/12/27 07:01:33;;;;;;;15.55;10.45;;;;;;;1.59;80.02;100964.22;1816988;79;21037;-77
2020/12/27 07:04:16;;;;;;;14.28;10.40;;;;;;;1.60;80.02;100965.92;1824120;78;21191;-77
2020/12/27 07:06:48;;;;;;;17.25;11.50;;;;;;;1.61;80.07;100971.02;1816955;79;21594;-77
2020/12/27 07:09:27;;;;;;;17.98;10.43;;;;;;;1.62;79.99;100967.59;1824221;78;21055;-76
2020/12/27 07:12:09;;;;;;;12.75;9.10;;;;;;;1.62;80.02;100968.87;1816909;78;21000;-76
2020/12/27 07:14:42;;;;;;;13.43;8.38;;;;;;;1.66;80.01;100976.14;1824157;78;21024;-75
2020/12/27 07:17:13;;;;;;;10.78;8.15;;;;;;;1.70;80.03;100985.53;1824215;78;21206;-74
2020/12/27 07:19:41;;;;;;;9.63;8.50;;;;;;;1.73;79.92;100991.94;1805192;78;20960;-75
2020/12/27 07:22:11;;;;;;;10.78;8.63;;;;;;;1.76;79.86;100993.20;1832840;78;20897;-76
2020/12/27 07:24:40;;;;;;;9.55;7.67;;;;;;;1.79;79.84;100994.48;1832903;78;20921;-76
2020/12/27 07:27:10;;;;;;;8.13;6.97;;;;;;;1.83;79.86;101001.74;1832844;78;20929;-74
2020/12/27 07:29:39;;;;;;;9.23;7.60;;;;;;;1.87;79.81;101005.58;1832790;78;21265;-77
2020/12/27 07:32:08;;;;;;;10.08;7.37;;;;;;;1.90;79.65;101005.56;1832772;78;20961;-75
2020/12/27 07:34:36;;;;;;;12.40;7.83;;;;;;;1.93;79.63;101002.98;1805290;78;20987;-75
2020/12/27 07:37:06;;;;;;;8.10;6.80;;;;;;;1.97;79.59;101012.38;1754605;78;21004;-76
2020/12/27 07:39:55;;;;;;;7.55;6.60;;;;;;;2.00;79.54;101017.90;1825679;78;20945;-75
2020/12/27 07:42:28;;;;;;;7.03;6.22;;;;;;;2.03;79.50;101020.45;1820660;78;21303;-77
2020/12/27 07:45:02;;;;;;;8.38;6.90;;;;;;;2.07;79.33;101024.71;1821425;78;21416;-76
2020/12/27 07:47:38;;;;;;;10.98;7.10;;;;;;;2.09;79.22;101015.71;1820825;78;20962;-75
2020/12/27 07:50:15;;;;;;;9.10;6.35;;;;;;;2.12;79.63;101014.41;1797970;78;21376;-75
2020/12/27 07:52:46;;;;;;;7.83;7.03;;;;;;;2.18;79.32;101016.52;1820728;78;21044;-75
2020/12/27 07:55:31;;;;;;;8.63;6.85;;;;;;;2.23;79.02;101017.78;1820616;78;21027;-77
2020/12/27 07:58:02;;;;;;;7.42;6.08;;;;;;;2.25;78.76;101013.05;1820554;78;20942;-77
2020/12/27 08:00:35;;;;;;;9.05;6.17;;;;;;;2.26;78.60;101017.77;1820632;78;20969;-78
2020/12/27 08:03:26;;;;;;;8.90;7.30;;;;;;;2.25;78.45;101021.19;1820586;78;21044;-78
2020/12/27 08:05:59;;;;;;;8.53;6.90;;;;;;;2.23;78.37;101031.48;1707231;84;21510;-81
2020/12/27 08:08:27;;;;;;;7.25;6.12;;;;;;;2.21;78.27;101027.21;1707057;84;21212;-77
2020/12/27 08:10:58;;;;;;;9.85;7.28;;;;;;;2.16;78.19;101039.23;1707011;84;20981;-78
2020/12/27 08:13:26;;;;;;;7.30;6.60;;;;;;;2.08;78.22;101040.55;1707043;84;21030;-78
2020/12/27 08:15:54;;;;;;;9.28;7.30;;;;;;;2.03;78.33;101042.28;1707044;84;21387;-78
2020/12/27 08:18:23;;;;;;;10.28;7.65;;;;;;;2.00;78.47;101050.00;1707033;84;20964;-73
2020/12/27 08:20:51;;;;;;;9.85;7.95;;;;;;;1.99;78.62;101049.19;1707229;84;22087;-75
2020/12/27 08:23:19;;;;;;;10.53;8.33;;;;;;;2.05;78.89;101054.69;1706959;84;21040;-75
2020/12/27 08:25:56;;;;;;;11.33;8.10;;;;;;;2.16;78.93;101051.64;1706980;84;21028;-76
2020/12/27 08:28:24;;;;;;;8.68;7.85;;;;;;;2.29;79.16;101043.44;1707357;84;21320;-77
2020/12/27 08:30:53;;;;;;;10.50;7.95;;;;;;;2.45;78.98;101041.17;1707098;84;20952;-77
2020/12/27 08:33:21;;;;;;;11.60;8.15;;;;;;;2.60;78.82;101044.93;1707083;84;21204;-74
2020/12/27 08:35:51;;;;;;;12.03;8.28;;;;;;;2.75;78.19;101040.55;1706970;84;21019;-74
2020/12/27 08:38:43;;;;;;;7.58;6.72;;;;;;;2.86;77.54;101038.70;1707066;84;21012;-74
2020/12/27 08:41:20;;;;;;;8.10;7.12;;;;;;;2.94;77.13;101048.08;1706965;83;20891;-76
2020/12/27 08:44:18;;;;;;;7.80;6.67;;;;;;;3.04;76.72;101038.99;1699537;84;21031;-78
2020/12/27 08:46:49;;;;;;;8.83;6.62;;;;;;;3.11;76.24;101045.80;1707135;84;22071;-78
2020/12/27 08:49:53;;;;;;;8.85;7.08;;;;;;;3.12;75.92;101041.06;1707097;84;21640;-76
2020/12/27 08:52:23;;;;;;;7.78;6.50;;;;;;;3.10;75.72;101044.94;1707071;84;21012;-76
2020/12/27 08:54:57;;;;;;;9.40;7.37;;;;;;;3.10;75.59;101045.38;1707003;84;20909;-76
2020/12/27 08:57:26;;;;;;;10.00;7.17;;;;;;;3.07;75.40;101053.97;1706988;84;21008;-76
2020/12/27 09:00:12;;;;;;;13.30;8.18;;;;;;;3.04;75.45;101057.00;1707027;84;21261;-76
2020/12/27 09:02:40;;;;;;;12.00;8.50;;;;;;;3.01;75.37;101052.73;1679308;84;21043;-76
2020/12/27 09:05:13;;;;;;;9.03;7.92;;;;;;;2.96;75.35;101045.48;1718727;82;20957;-75
2020/12/27 09:07:45;;;;;;;7.67;6.55;;;;;;;2.92;75.44;101039.95;1725990;83;20981;-76
2020/12/27 09:10:21;;;;;;;10.25;8.03;;;;;;;2.88;75.53;101030.55;1725550;83;20961;-75
2020/12/27 09:13:09;;;;;;;8.78;7.40;;;;;;;2.84;75.65;101044.30;1725995;83;21203;-77
2020/12/27 09:15:45;;;;;;;9.03;6.72;;;;;;;2.80;75.74;101046.04;1725895;83;21056;-75
2020/12/27 09:18:16;;;;;;;6.92;6.30;;;;;;;2.77;75.72;101062.81;1726109;83;25656;-76
2020/12/27 09:20:45;;;;;;;7.28;5.92;;;;;;;2.74;75.92;101076.98;1724264;83;20948;-77
2020/12/27 09:23:17;;;;;;;7.97;6.55;;;;;;;2.73;75.79;101082.13;1726063;83;21371;-74
2020/12/27 09:25:47;;;;;;;8.93;6.40;;;;;;;2.73;75.68;101082.98;1726101;83;21399;-78
2020/12/27 09:28:21;;;;;;;9.85;6.78;;;;;;;2.71;75.93;101080.00;1722694;83;21063;-78
2020/12/27 09:31:10;;;;;;;7.58;6.78;;;;;;;2.71;75.95;101078.72;1726885;83;21586;-79
2020/12/27 09:33:47;;;;;;;9.20;7.53;;;;;;;2.72;75.74;101080.42;1724830;83;21107;-77
2020/12/27 09:36:16;;;;;;;9.08;7.12;;;;;;;2.71;75.79;101083.43;1726003;83;20958;-77
2020/12/27 09:38:45;;;;;;;8.48;6.28;;;;;;;2.72;75.85;101086.85;1725399;83;21659;-77
2020/12/27 09:41:25;;;;;;;7.75;6.72;;;;;;;2.72;75.78;101081.70;1723404;83;20969;-77
2020/12/27 09:43:52;;;;;;;10.13;6.75;;;;;;;2.71;75.76;101087.72;1723673;83;21048;-72
2020/12/27 09:46:51;;;;;;;9.15;6.75;;;;;;;2.68;75.50;101093.30;1724370;83;21097;-78
2020/12/27 09:49:32;;;;;;;9.73;6.87;;;;;;;2.63;75.33;101085.20;1724340;83;21013;-77
2020/12/27 09:52:15;;;;;;;9.68;7.55;;;;;;;2.58;75.54;101086.51;1724460;83;22161;-77
2020/12/27 09:54:45;;;;;;;9.48;6.90;;;;;;;2.57;75.62;101080.09;1724300;83;21000;-78
2020/12/27 09:57:19;;;;;;;9.03;7.20;;;;;;;2.58;75.78;101076.66;1724450;83;21511;-77
2020/12/27 09:59:50;;;;;;;;;;;;;;;2.60;76.26;101074.50;1726771;81;21036;-78
2020/12/27 10:02:20;;;;;;;7.65;6.60;;;;;;;2.67;75.84;101089.45;1695533;84;20508;-74
2020/12/27 10:04:49;;;;;;;6.42;5.70;;;;;;;2.71;75.40;101085.15;1699903;83;21236;-76
2020/12/27 10:07:18;;;;;;;7.87;5.80;;;;;;;2.73;74.97;101091.13;1698861;84;21091;-78
2020/12/27 10:09:46;;;;;;;6.75;5.92;;;;;;;2.75;75.14;101090.69;1699210;84;21075;-77
2020/12/27 10:12:15;;;;;;;7.30;6.30;;;;;;;2.77;75.50;101081.25;1699243;84;21032;-78
2020/12/27 10:14:43;;;;;;;11.05;6.80;;;;;;;2.82;75.77;101076.89;1699876;84;20957;-77
2020/12/27 10:17:12;;;;;;;7.35;6.00;;;;;;;2.85;75.57;101086.73;1699906;84;21260;-79
2020/12/27 10:19:40;;;;;;;7.40;5.87;;;;;;;2.88;75.31;101079.42;1699801;84;21057;-78
2020/12/27 10:22:08;;;;;;;8.40;6.62;;;;;;;2.91;74.65;101072.53;1699976;84;21499;-78
2020/12/27 10:24:37;;;;;;;6.62;5.92;;;;;;;2.92;74.18;101069.09;1699930;84;21626;-77
2020/12/27 10:27:06;;;;;;;7.97;6.10;;;;;;;2.94;73.87;101072.95;1700092;84;20921;-79
2020/12/27 10:29:35;;;;;;;7.10;6.37;;;;;;;2.93;73.64;101080.24;1700044;84;21204;-78
2020/12/27 10:32:06;;;;;;;8.88;6.10;;;;;;;2.91;73.61;101084.11;1676647;84;20981;-79
2020/12/27 10:34:35;;;;;;;5.47;4.97;;;;;;;2.91;73.58;101084.11;1700075;84;20926;-77
2020/12/27 10:37:04;;;;;;;6.45;5.22;;;;;;;2.90;73.00;101078.55;1699988;84;21008;-75
2020/12/27 10:39:34;;;;;;;5.72;5.10;;;;;;;2.89;72.65;101078.55;1700029;84;20976;-75
2020/12/27 10:42:02;;;;;;;5.83;5.12;;;;;;;2.86;72.64;101069.58;1700043;84;21146;-77
2020/12/27 10:44:32;;;;;;;7.47;5.47;;;;;;;2.85;72.21;101072.58;1699958;84;21526;-77
2020/12/27 10:47:01;;;;;;;6.55;5.85;;;;;;;2.85;71.97;101063.58;1699965;84;21036;-76
2020/12/27 10:49:29;;;;;;;7.90;5.60;;;;;;;2.84;71.89;101060.58;1699957;84;21048;-78
2020/12/27 10:51:59;;;;;;;7.05;5.10;;;;;;;2.84;71.95;101065.73;1700236;84;21590;-77
2020/12/27 10:54:27;;;;;;;6.72;5.58;;;;;;;2.83;71.67;101054.16;1700123;84;21229;-76
2020/12/27 10:56:56;;;;;;;5.58;4.60;;;;;;;2.85;71.41;101057.58;1699974;84;20956;-75
2020/12/27 10:59:24;;;;;;;5.30;4.80;;;;;;;2.86;71.21;101070.86;1700123;84;21511;-79
2020/12/27 11:01:53;;;;;;;6.65;5.55;;;;;;;2.86;71.25;101060.57;1700014;84;20973;-77
2020/12/27 11:04:21;;;;;;;5.83;5.15;;;;;;;2.87;71.34;101055.41;1700049;84;20973;-76
2020/12/27 11:06:50;;;;;;;5.67;5.08;;;;;;;2.91;71.55;101057.53;1745727;82;21329;-77
2020/12/27 11:09:19;;;;;;;7.12;5.20;;;;;;;2.93;71.86;101061.80;1735380;82;21450;-76
2020/12/27 11:11:49;;;;;;;5.53;5.03;;;;;;;3.02;72.08;101054.44;1735466;82;21039;-79
2020/12/27 11:14:18;;;;;;;6.12;5.30;;;;;;;3.11;71.79;101054.36;1706726;82;21076;-78
2020/12/27 11:16:49;;;;;;;5.30;4.90;;;;;;;3.18;71.54;101056.45;1735590;82;21020;-76
2020/12/27 11:19:17;;;;;;;5.58;4.97;;;;;;;3.26;71.41;101051.63;1735418;82;21291;-77
2020/12/27 11:21:49;;;;;;;6.10;4.72;;;;;;;3.37;71.29;101067.40;1735458;82;21510;-74
2020/12/27 11:24:19;;;;;;;7.35;4.35;;;;;;;3.46;70.31;101068.16;1735465;82;21036;-74
2020/12/27 11:26:47;;;;;;;5.08;4.33;;;;;;;3.53;69.36;101059.51;1737695;82;21058;-71
2020/12/27 11:29:15;;;;;;;5.75;5.08;;;;;;;3.57;68.80;101055.18;1737705;82;21014;-72
2020/12/27 11:31:45;;;;;;;6.03;4.75;;;;;;;3.58;68.70;101060.75;1736362;82;22151;-71
2020/12/27 11:34:13;;;;;;;5.42;4.53;;;;;;;3.54;68.94;101064.22;1735504;82;21526;-73
2020/12/27 11:36:41;;;;;;;6.22;4.85;;;;;;;3.48;68.85;101070.29;1735334;82;21020;-70
2020/12/27 11:39:10;;;;;;;6.83;5.37;;;;;;;3.43;69.04;101072.05;1734929;82;21157;-72
2020/12/27 11:41:40;;;;;;;7.45;5.92;;;;;;;3.39;69.35;101062.66;1729774;82;21699;-76
2020/12/27 11:44:09;;;;;;;9.05;5.65;;;;;;;3.40;69.76;101066.08;1734073;82;21341;-78
2020/12/27 11:46:37;;;;;;;6.25;5.47;;;;;;;3.42;69.88;101057.91;1734114;82;21205;-76
2020/12/27 11:49:07;;;;;;;6.37;5.60;;;;;;;3.42;69.62;101070.34;1734038;81;21099;-78
2020/12/27 11:51:35;;;;;;;5.30;4.40;;;;;;;3.44;69.60;101060.89;1733977;81;21016;-77
2020/12/27 11:54:04;;;;;;;5.70;4.95;;;;;;;3.47;68.73;101067.30;1734688;82;21632;-78
2020/12/27 11:56:32;;;;;;;5.20;4.70;;;;;;;3.47;68.23;101067.73;1735439;82;21211;-79